createdAt,value
2023-04-26T00:02:15.300Z,6.57
2023-04-26T00:04:41.928Z,6.15
2023-04-26T00:07:08.502Z,7.13
2023-04-26T00:09:34.789Z,6.53
2023-04-26T00:12:01.146Z,7.07
2023-04-26T00:14:27.504Z,8.65
2023-04-26T00:16:54.211Z,5.70
2023-04-26T00:19:20.486Z,8.85
2023-04-26T00:21:46.805Z,6.25
2023-04-26T00:24:13.092Z,7.15
2023-04-26T00:26:39.388Z,5.88
2023-04-26T00:29:05.693Z,7.43
2023-04-26T00:31:32.134Z,7.65
2023-04-26T00:33:58.444Z,7.65
2023-04-26T00:36:24.762Z,7.43
2023-04-26T00:38:51.375Z,5.75
2023-04-26T00:41:17.794Z,7.53
2023-04-26T00:43:44.481Z,6.95
2023-04-26T00:46:10.907Z,6.00
2023-04-26T00:48:37.876Z,6.18
2023-04-26T00:51:05.624Z,8.57
2023-04-26T00:55:58.883Z,6.32
2023-04-26T00:58:25.743Z,7.20
2023-04-26T01:00:52.207Z,6.13
2023-04-26T01:03:19.460Z,7.47
2023-04-26T01:05:46.341Z,6.88
2023-04-26T01:08:12.886Z,5.80
2023-04-26T01:10:40.054Z,8.05
2023-04-26T01:13:06.464Z,7.32
2023-04-26T01:15:32.864Z,6.65
2023-04-26T01:17:59.978Z,9.23
2023-04-26T01:20:26.305Z,6.07
2023-04-26T01:22:52.638Z,9.02
2023-04-26T01:25:19.294Z,12.52
2023-04-26T01:27:45.595Z,5.63
2023-04-26T01:30:12.230Z,6.47
2023-04-26T01:32:38.523Z,6.30
2023-04-26T01:35:05.302Z,5.07
2023-04-26T01:37:31.593Z,5.70
2023-04-26T01:39:57.888Z,6.28
2023-04-26T01:42:24.255Z,5.45
2023-04-26T01:44:50.648Z,8.20
2023-04-26T01:47:17.048Z,10.80
2023-04-26T01:49:43.500Z,6.57
2023-04-26T01:52:09.789Z,7.90
2023-04-26T01:54:36.191Z,8.07
2023-04-26T01:57:02.527Z,6.53
2023-04-26T01:59:29.017Z,6.35
2023-04-26T02:01:55.356Z,10.10
2023-04-26T02:04:21.781Z,6.32
2023-04-26T02:06:48.092Z,5.70
2023-04-26T02:09:14.419Z,7.00
2023-04-26T02:11:40.715Z,8.40
2023-04-26T02:14:07.253Z,7.65
2023-04-26T02:16:33.602Z,6.60
2023-04-26T02:19:00.002Z,8.68
2023-04-26T02:21:26.373Z,6.70
2023-04-26T02:23:52.943Z,7.05
2023-04-26T02:26:19.248Z,7.40
2023-04-26T02:28:45.670Z,6.72
2023-04-26T02:31:11.962Z,6.93
2023-04-26T02:33:38.256Z,7.03
2023-04-26T02:36:10.641Z,9.00
2023-04-26T02:38:41.964Z,8.45
2023-04-26T02:41:08.237Z,7.63
2023-04-26T02:43:39.605Z,9.20
2023-04-26T02:46:11.078Z,8.25
2023-04-26T02:48:37.550Z,6.70
2023-04-26T02:51:04.044Z,5.50
2023-04-26T02:53:30.328Z,8.32
2023-04-26T02:55:56.702Z,8.95
2023-04-26T02:58:23.050Z,8.57
2023-04-26T03:00:49.492Z,11.43
2023-04-26T03:03:16.067Z,10.00
2023-04-26T03:05:42.649Z,7.32
2023-04-26T03:08:08.968Z,8.65
2023-04-26T03:10:35.213Z,6.75
2023-04-26T03:13:01.633Z,9.60
2023-04-26T03:15:27.911Z,9.13
2023-04-26T03:17:54.220Z,9.23
2023-04-26T03:20:20.571Z,10.35
2023-04-26T03:22:46.877Z,8.65
2023-04-26T03:25:13.175Z,8.10
2023-04-26T03:27:39.575Z,8.40
2023-04-26T03:30:06.648Z,7.60
2023-04-26T03:32:33.065Z,7.20
2023-04-26T03:34:59.428Z,6.80
2023-04-26T03:37:25.680Z,9.88
2023-04-26T03:39:52.118Z,7.03
2023-04-26T03:42:18.403Z,8.50
2023-04-26T03:44:44.711Z,10.05
2023-04-26T03:47:11.010Z,9.50
2023-04-26T03:49:37.287Z,7.90
2023-04-26T03:52:03.771Z,7.70
2023-04-26T03:54:30.029Z,9.15
2023-04-26T03:56:56.417Z,9.30
2023-04-26T03:59:22.702Z,6.93
2023-04-26T04:01:49.008Z,7.45
2023-04-26T04:04:15.471Z,7.65
2023-04-26T04:06:41.976Z,8.73
2023-04-26T04:09:08.379Z,7.15
2023-04-26T04:11:34.740Z,7.80
2023-04-26T04:14:01.113Z,7.25
2023-04-26T04:16:27.499Z,7.65
2023-04-26T04:18:54.126Z,7.65
2023-04-26T04:21:20.632Z,7.13
2023-04-26T04:23:47.014Z,7.38
2023-04-26T04:26:13.390Z,6.20
2023-04-26T04:28:40.152Z,9.63
2023-04-26T04:31:06.504Z,8.82
2023-04-26T04:33:32.812Z,7.22
2023-04-26T04:35:59.197Z,8.00
2023-04-26T04:38:25.512Z,8.25
2023-04-26T04:40:51.811Z,9.45
2023-04-26T04:43:18.168Z,8.68
2023-04-26T04:45:44.461Z,11.27
2023-04-26T04:48:11.040Z,7.85
2023-04-26T04:50:39.098Z,7.45
2023-04-26T04:53:05.532Z,7.30
2023-04-26T04:55:31.824Z,8.80
2023-04-26T04:57:58.111Z,8.82
2023-04-26T05:00:24.714Z,8.23
2023-04-26T05:02:51.141Z,7.15
2023-04-26T05:05:17.696Z,8.65
2023-04-26T05:07:43.996Z,13.02
2023-04-26T05:10:10.975Z,8.88
2023-04-26T05:12:37.310Z,9.48
2023-04-26T05:15:04.548Z,8.38
2023-04-26T05:17:32.651Z,9.05
2023-04-26T05:19:58.971Z,8.50
2023-04-26T05:22:27.272Z,6.82
2023-04-26T05:24:53.655Z,9.18
2023-04-26T05:27:20.019Z,5.93
2023-04-26T05:29:46.391Z,9.32
2023-04-26T05:32:12.855Z,8.63
2023-04-26T05:34:39.267Z,8.68
2023-04-26T05:37:05.566Z,8.02
2023-04-26T05:39:31.958Z,8.70
2023-04-26T05:41:58.304Z,7.63
2023-04-26T05:44:24.566Z,8.15
2023-04-26T05:46:50.828Z,7.53
2023-04-26T05:49:17.170Z,7.95
2023-04-26T05:51:43.582Z,7.95
2023-04-26T05:54:09.939Z,10.85
2023-04-26T05:56:36.221Z,6.93
2023-04-26T05:59:02.565Z,7.85
2023-04-26T06:01:28.946Z,7.57
2023-04-26T06:03:57.864Z,9.73
2023-04-26T06:06:26.604Z,6.53
2023-04-26T06:08:52.884Z,6.38
2023-04-26T06:11:19.249Z,5.38
2023-04-26T06:13:45.540Z,8.63
2023-04-26T06:16:11.822Z,6.30
2023-04-26T06:18:38.084Z,7.60
2023-04-26T06:21:05.208Z,7.60
2023-04-26T06:23:31.517Z,9.98
2023-04-26T06:25:57.912Z,5.40
2023-04-26T06:28:24.226Z,7.60
2023-04-26T06:30:50.515Z,6.38
2023-04-26T06:33:17.031Z,6.15
2023-04-26T06:35:43.328Z,4.63
2023-04-26T06:38:09.755Z,6.35
2023-04-26T06:40:36.156Z,5.70
2023-04-26T06:43:02.879Z,6.57
2023-04-26T06:45:29.692Z,5.80
2023-04-26T06:47:56.136Z,5.68
2023-04-26T06:50:22.742Z,5.78
2023-04-26T06:52:49.049Z,5.68
2023-04-26T06:55:15.352Z,9.43
2023-04-26T06:57:41.622Z,7.50
2023-04-26T07:00:08.643Z,6.32
2023-04-26T07:02:35.156Z,8.10
2023-04-26T07:05:01.723Z,3.70
2023-04-26T07:07:28.437Z,4.95
2023-04-26T07:09:54.817Z,6.95
2023-04-26T07:12:21.101Z,4.25
2023-04-26T07:14:47.399Z,4.00
2023-04-26T07:17:13.766Z,6.95
2023-04-26T07:19:40.066Z,5.78
2023-04-26T07:22:06.394Z,7.30
2023-04-26T07:24:32.699Z,4.85
2023-04-26T07:26:59.094Z,4.22
2023-04-26T07:29:25.407Z,4.15
2023-04-26T07:31:51.725Z,4.80
2023-04-26T07:34:18.045Z,3.25
2023-04-26T07:36:44.327Z,4.70
2023-04-26T07:39:10.640Z,2.97
2023-04-26T07:41:37.156Z,4.32
2023-04-26T07:44:03.664Z,3.70
2023-04-26T07:46:29.974Z,5.30
2023-04-26T07:48:56.257Z,5.35
2023-04-26T07:51:22.581Z,2.80
2023-04-26T07:53:48.855Z,5.47
2023-04-26T07:56:15.153Z,4.45
2023-04-26T07:58:41.679Z,4.50
2023-04-26T08:01:07.986Z,3.13
2023-04-26T08:03:34.472Z,5.03
2023-04-26T08:06:01.406Z,4.88
2023-04-26T08:08:28.058Z,5.65
2023-04-26T08:10:54.759Z,4.95
2023-04-26T08:13:21.555Z,3.40
2023-04-26T08:15:48.214Z,5.47
2023-04-26T08:18:14.526Z,4.47
2023-04-26T08:20:41.007Z,4.82
2023-04-26T08:23:07.327Z,5.57
2023-04-26T08:25:33.603Z,5.90
2023-04-26T08:27:59.884Z,4.05
2023-04-26T08:30:26.184Z,6.28
2023-04-26T08:32:52.566Z,6.65
2023-04-26T08:35:18.999Z,5.93
2023-04-26T08:37:45.386Z,5.03
2023-04-26T08:40:11.725Z,5.80
2023-04-26T08:42:42.335Z,6.03
2023-04-26T08:45:09.030Z,5.88
2023-04-26T08:47:42.729Z,6.18
2023-04-26T08:50:11.630Z,2.88
2023-04-26T08:52:39.557Z,4.10
2023-04-26T08:55:07.752Z,3.50
2023-04-26T08:57:34.189Z,5.45
2023-04-26T09:00:02.332Z,4.53
2023-04-26T09:02:29.467Z,3.33
2023-04-26T09:04:56.025Z,3.97
2023-04-26T09:07:30.316Z,3.78
2023-04-26T09:09:58.528Z,5.43
2023-04-26T09:12:25.327Z,4.20
2023-04-26T09:14:51.778Z,5.93
2023-04-26T09:17:30.361Z,3.03
2023-04-26T09:19:57.400Z,3.03
2023-04-26T09:22:36.984Z,4.18
2023-04-26T09:27:41.084Z,3.90
2023-04-26T09:30:14.775Z,3.88
2023-04-26T09:32:54.952Z,3.78
2023-04-26T09:35:33.479Z,3.28
2023-04-26T09:38:08.610Z,3.47
2023-04-26T09:40:46.016Z,3.88
2023-04-26T09:43:22.457Z,4.22
2023-04-26T09:45:53.881Z,2.33
2023-04-26T09:48:28.509Z,5.50
2023-04-26T09:51:08.320Z,2.63
2023-04-26T09:53:35.615Z,3.60
2023-04-26T09:58:47.914Z,2.80
2023-04-26T10:01:15.799Z,4.13
2023-04-26T10:03:42.454Z,2.50
2023-04-26T10:06:09.227Z,3.75
2023-04-26T10:08:36.181Z,2.22
2023-04-26T10:11:06.898Z,2.72
2023-04-26T10:13:33.516Z,4.47
2023-04-26T10:16:00.493Z,3.35
2023-04-26T10:18:26.894Z,3.60
2023-04-26T10:20:57.244Z,3.38
2023-04-26T10:23:24.579Z,1.92
2023-04-26T10:28:40.456Z,2.50
2023-04-26T10:31:06.823Z,1.90
2023-04-26T10:33:33.457Z,3.08
2023-04-26T10:36:07.523Z,3.13
2023-04-26T10:38:35.776Z,2.53
2023-04-26T10:41:31.050Z,3.05
2023-04-26T10:43:59.196Z,2.72
2023-04-26T10:46:38.808Z,4.60
2023-04-26T10:49:19.166Z,3.90
2023-04-26T10:52:10.966Z,3.25
2023-04-26T10:54:57.138Z,4.85
2023-04-26T10:57:47.453Z,4.85
2023-04-26T11:00:31.341Z,3.40
2023-04-26T11:03:02.547Z,3.03
2023-04-26T11:06:05.698Z,3.67
2023-04-26T11:08:32.036Z,3.45
2023-04-26T11:11:06.573Z,5.32
2023-04-26T11:13:35.227Z,3.00
2023-04-26T11:16:03.521Z,5.45
2023-04-26T11:18:30.752Z,3.60
2023-04-26T11:20:58.387Z,4.43
2023-04-26T11:23:27.432Z,3.83
2023-04-26T11:25:54.152Z,3.63
2023-04-26T11:28:20.822Z,3.97
2023-04-26T11:30:49.301Z,3.40
2023-04-26T11:33:20.700Z,3.30
2023-04-26T11:35:47.249Z,3.38
2023-04-26T11:38:13.958Z,4.32
2023-04-26T11:40:40.392Z,2.53
2023-04-26T11:43:07.642Z,5.05
2023-04-26T11:45:35.518Z,3.97
2023-04-26T11:48:03.388Z,4.70
2023-04-26T11:50:32.213Z,3.92
2023-04-26T11:53:00.362Z,2.72
2023-04-26T11:55:31.304Z,4.55
2023-04-26T11:57:58.880Z,2.97
2023-04-26T12:00:26.738Z,4.78
2023-04-26T12:02:53.881Z,2.50
2023-04-26T12:07:52.290Z,4.47
2023-04-26T12:10:20.472Z,4.25
2023-04-26T12:12:51.228Z,4.18
2023-04-26T12:15:25.318Z,6.45
2023-04-26T12:17:56.763Z,3.55
2023-04-26T12:20:27.486Z,4.75
2023-04-26T12:23:05.262Z,3.28
2023-04-26T12:25:33.697Z,3.70
2023-04-26T12:28:00.869Z,4.45
2023-04-26T12:30:29.086Z,2.95
2023-04-26T12:33:05.797Z,3.70
2023-04-26T12:35:42.180Z,3.83
2023-04-26T12:38:08.649Z,2.47
2023-04-26T12:40:34.962Z,6.07
2023-04-26T12:43:01.318Z,3.70
2023-04-26T12:45:27.612Z,3.60
2023-04-26T12:47:54.478Z,5.97
2023-04-26T12:50:21.081Z,3.75
2023-04-26T12:52:47.608Z,4.35
2023-04-26T12:55:15.667Z,3.28
2023-04-26T12:57:43.820Z,2.78
2023-04-26T13:00:17.272Z,4.40
2023-04-26T13:02:44.194Z,3.80
2023-04-26T13:05:11.052Z,3.53
2023-04-26T13:07:40.576Z,4.38
2023-04-26T13:10:07.914Z,3.35
2023-04-26T13:12:34.898Z,4.03
2023-04-26T13:15:01.336Z,3.85
2023-04-26T13:17:28.032Z,4.78
2023-04-26T13:19:54.404Z,4.05
2023-04-26T13:22:20.783Z,5.20
2023-04-26T13:24:47.050Z,3.97
2023-04-26T13:27:13.777Z,4.35
2023-04-26T13:29:40.952Z,4.25
2023-04-26T13:32:07.673Z,3.83
2023-04-26T13:34:34.233Z,5.40
2023-04-26T13:37:00.562Z,5.45
2023-04-26T13:39:27.858Z,11.73
2023-04-26T13:44:20.806Z,5.50
2023-04-26T13:46:47.436Z,3.70
2023-04-26T13:49:13.882Z,2.80
2023-04-26T13:51:40.588Z,3.90
2023-04-26T13:54:06.994Z,2.47
2023-04-26T13:56:33.451Z,4.63
2023-04-26T13:59:00.521Z,4.65
2023-04-26T14:01:27.414Z,5.75
2023-04-26T14:03:55.888Z,3.78
2023-04-26T14:06:22.730Z,4.93
2023-04-26T14:08:49.025Z,4.22
2023-04-26T14:11:15.484Z,6.32
2023-04-26T14:13:41.763Z,5.60
2023-04-26T14:16:08.177Z,3.28
2023-04-26T14:18:34.539Z,3.17
2023-04-26T14:21:00.968Z,4.30
2023-04-26T14:23:27.323Z,3.75
2023-04-26T14:25:53.834Z,4.15
2023-04-26T14:28:20.578Z,3.88
2023-04-26T14:30:46.869Z,3.70
2023-04-26T14:33:13.372Z,5.03
2023-04-26T14:35:39.968Z,4.03
2023-04-26T14:38:06.240Z,5.22
2023-04-26T14:40:32.996Z,4.32
2023-04-26T14:42:59.302Z,3.75
2023-04-26T14:45:36.861Z,5.45
2023-04-26T14:48:10.467Z,3.67
2023-04-26T14:50:36.758Z,4.60
2023-04-26T14:53:03.102Z,5.25
2023-04-26T14:55:29.548Z,4.95
2023-04-26T14:57:55.848Z,4.75
2023-04-26T15:00:22.667Z,4.72
2023-04-26T15:02:49.148Z,3.80
2023-04-26T15:05:15.653Z,4.97
2023-04-26T15:07:41.929Z,3.28
2023-04-26T15:10:08.726Z,3.67
2023-04-26T15:12:35.530Z,4.38
2023-04-26T15:15:02.573Z,4.55
2023-04-26T15:17:31.962Z,3.88
2023-04-26T15:19:58.471Z,3.72
2023-04-26T15:22:24.823Z,3.83
2023-04-26T15:24:51.216Z,3.65
2023-04-26T15:27:17.580Z,3.95
2023-04-26T15:29:43.969Z,5.13
2023-04-26T15:32:10.334Z,4.05
2023-04-26T15:34:40.426Z,5.60
2023-04-26T15:37:06.932Z,4.65
2023-04-26T15:39:33.254Z,6.85
2023-04-26T15:41:59.547Z,6.25
2023-04-26T15:44:25.924Z,3.05
2023-04-26T15:46:52.218Z,2.95
2023-04-26T15:49:18.567Z,3.83
2023-04-26T15:51:44.852Z,6.75
2023-04-26T15:54:11.188Z,4.30
2023-04-26T15:56:37.504Z,5.00
2023-04-26T15:59:03.845Z,4.47
2023-04-26T16:01:30.192Z,5.20
2023-04-26T16:03:56.719Z,4.53
2023-04-26T16:06:23.108Z,3.33
2023-04-26T16:08:49.420Z,3.30
2023-04-26T16:11:15.737Z,4.35
2023-04-26T16:13:42.074Z,4.30
2023-04-26T16:16:08.640Z,3.50
2023-04-26T16:18:35.038Z,3.78
2023-04-26T16:21:04.863Z,2.67
2023-04-26T16:23:31.183Z,5.38
2023-04-26T16:25:57.650Z,4.88
2023-04-26T16:28:23.951Z,3.58
2023-04-26T16:30:50.245Z,4.65
2023-04-26T16:33:16.550Z,5.70
2023-04-26T16:35:42.993Z,5.03
2023-04-26T16:38:09.282Z,2.58
2023-04-26T16:40:35.596Z,4.53
2023-04-26T16:43:01.916Z,5.15
2023-04-26T16:45:28.268Z,3.65
2023-04-26T16:47:54.642Z,4.82
2023-04-26T16:50:21.028Z,3.92
2023-04-26T16:52:47.416Z,3.42
2023-04-26T16:55:13.768Z,4.07
2023-04-26T16:57:40.068Z,4.22
2023-04-26T17:00:07.018Z,3.60
2023-04-26T17:02:33.521Z,4.07
2023-04-26T17:05:00.143Z,5.00
2023-04-26T17:07:26.708Z,4.97
2023-04-26T17:09:53.028Z,4.32
2023-04-26T17:12:19.310Z,5.68
2023-04-26T17:14:45.605Z,4.90
2023-04-26T17:17:11.946Z,3.70
2023-04-26T17:19:38.273Z,4.93
2023-04-26T17:22:04.609Z,6.50
2023-04-26T17:24:30.903Z,6.60
2023-04-26T17:26:57.284Z,5.47
2023-04-26T17:29:23.569Z,4.18
2023-04-26T17:31:49.968Z,4.03
2023-04-26T17:34:16.282Z,6.88
2023-04-26T17:36:42.663Z,2.85
2023-04-26T17:39:08.970Z,6.43
2023-04-26T17:41:35.276Z,3.63
2023-04-26T17:44:01.572Z,5.10
2023-04-26T17:46:28.105Z,4.95
2023-04-26T17:48:54.540Z,4.10
2023-04-26T17:51:20.933Z,6.00
2023-04-26T17:53:47.261Z,4.80
2023-04-26T17:56:13.569Z,4.53
2023-04-26T17:58:39.867Z,4.82
2023-04-26T18:01:06.388Z,5.15
2023-04-26T18:03:32.852Z,4.07
2023-04-26T18:05:59.279Z,4.53
2023-04-26T18:08:25.628Z,5.07
2023-04-26T18:10:52.045Z,4.55
2023-04-26T18:13:18.513Z,5.05
2023-04-26T18:15:45.086Z,3.50
2023-04-26T18:18:11.402Z,4.50
2023-04-26T18:20:37.770Z,3.70
2023-04-26T18:23:04.195Z,3.55
2023-04-26T18:25:30.490Z,4.35
2023-04-26T18:27:56.775Z,7.22
2023-04-26T18:30:23.199Z,5.70
2023-04-26T18:32:51.558Z,3.83
2023-04-26T18:35:18.116Z,5.25
2023-04-26T18:37:44.454Z,6.93
2023-04-26T18:40:11.392Z,5.10
2023-04-26T18:42:37.687Z,4.88
2023-04-26T18:45:05.705Z,6.22
2023-04-26T18:47:32.136Z,4.80
2023-04-26T18:49:58.580Z,4.30
2023-04-26T18:52:24.871Z,5.75
2023-04-26T18:54:51.172Z,4.75
2023-04-26T18:57:17.441Z,6.47
2023-04-26T18:59:43.711Z,5.85
2023-04-26T19:02:10.154Z,5.97
2023-04-26T19:04:36.873Z,4.72
2023-04-26T19:07:03.311Z,7.40
2023-04-26T19:09:31.987Z,10.02
2023-04-26T19:12:01.388Z,10.00
2023-04-26T19:14:27.682Z,8.05
2023-04-26T19:16:54.018Z,8.27
2023-04-26T19:19:20.315Z,7.95
2023-04-26T19:21:46.627Z,8.02
2023-04-26T19:24:12.926Z,10.25
2023-04-26T19:26:39.294Z,13.05
2023-04-26T19:29:06.825Z,9.80
2023-04-26T19:31:33.702Z,8.73
2023-04-26T19:34:00.052Z,10.32
2023-04-26T19:36:26.344Z,10.70
2023-04-26T19:38:52.671Z,7.65
2023-04-26T19:41:18.964Z,7.35
2023-04-26T19:43:45.301Z,11.57
2023-04-26T19:46:13.053Z,6.97
2023-04-26T19:48:40.099Z,7.30
2023-04-26T19:51:06.459Z,5.55
2023-04-26T19:53:33.174Z,5.63
2023-04-26T19:55:59.470Z,5.88
2023-04-26T19:58:25.750Z,4.82
2023-04-26T20:00:52.070Z,9.48
2023-04-26T20:03:18.523Z,6.03
2023-04-26T20:05:44.905Z,8.57
2023-04-26T20:08:11.236Z,7.43
2023-04-26T20:10:37.650Z,11.48
2023-04-26T20:13:03.938Z,7.97
2023-04-26T20:15:32.233Z,9.02
2023-04-26T20:18:00.596Z,11.23
2023-04-26T20:20:26.955Z,9.63
2023-04-26T20:22:53.243Z,9.55
2023-04-26T20:25:19.905Z,12.45
2023-04-26T20:27:46.973Z,14.00
2023-04-26T20:30:14.863Z,15.90
2023-04-26T20:32:41.435Z,11.43
2023-04-26T20:35:08.232Z,9.23
2023-04-26T20:37:34.790Z,10.27
2023-04-26T20:40:01.289Z,9.10
2023-04-26T20:42:27.673Z,8.23
2023-04-26T20:44:53.963Z,8.98
2023-04-26T20:47:20.232Z,11.38
2023-04-26T20:49:46.593Z,10.40
2023-04-26T20:52:12.938Z,10.75
2023-04-26T20:54:39.362Z,11.43
2023-04-26T20:57:05.721Z,10.77
2023-04-26T20:59:32.025Z,8.77
2023-04-26T21:01:58.433Z,10.65
2023-04-26T21:04:25.274Z,11.73
2023-04-26T21:06:51.744Z,12.85
2023-04-26T21:09:18.047Z,11.00
2023-04-26T21:11:47.652Z,10.80
2023-04-26T21:14:13.946Z,11.10
2023-04-26T21:16:40.842Z,10.30
2023-04-26T21:19:07.827Z,9.07
2023-04-26T21:21:34.572Z,7.72
2023-04-26T21:24:00.871Z,7.65
2023-04-26T21:26:27.134Z,7.53
2023-04-26T21:28:53.557Z,9.40
2023-04-26T21:31:19.872Z,12.23
2023-04-26T21:33:46.161Z,13.07
2023-04-26T21:36:12.565Z,9.13
2023-04-26T21:38:38.871Z,10.35
2023-04-26T21:41:05.233Z,8.43
2023-04-26T21:43:31.530Z,11.07
2023-04-26T21:45:58.351Z,8.50
2023-04-26T21:48:25.750Z,10.32
2023-04-26T21:50:52.280Z,9.23
2023-04-26T21:53:18.619Z,9.10
2023-04-26T21:55:50.780Z,8.05
2023-04-26T21:58:17.450Z,9.27
2023-04-26T22:00:43.918Z,10.52
2023-04-26T22:03:10.529Z,9.60
2023-04-26T22:05:37.091Z,9.35
2023-04-26T22:08:03.714Z,11.77
2023-04-26T22:10:30.278Z,14.38
2023-04-26T22:12:56.577Z,11.75
2023-04-26T22:15:23.276Z,11.50
2023-04-26T22:17:49.688Z,11.20
2023-04-26T22:20:16.070Z,10.30
2023-04-26T22:22:42.404Z,11.23
2023-04-26T22:25:09.218Z,8.98
2023-04-26T22:27:35.505Z,11.18
2023-04-26T22:30:09.418Z,9.18
2023-04-26T22:32:47.077Z,10.70
2023-04-26T22:35:13.537Z,10.30
2023-04-26T22:37:40.086Z,10.43
2023-04-26T22:40:07.168Z,9.40
2023-04-26T22:42:33.749Z,10.00
2023-04-26T22:45:00.281Z,9.13
2023-04-26T22:47:26.867Z,10.40
2023-04-26T22:49:53.404Z,10.45
2023-04-26T22:52:28.290Z,9.07
2023-04-26T22:54:58.138Z,8.45
2023-04-26T22:57:24.936Z,9.20
2023-04-26T22:59:51.501Z,8.93
2023-04-26T23:02:18.048Z,10.90
2023-04-26T23:04:44.856Z,8.88
2023-04-26T23:07:11.454Z,8.88
2023-04-26T23:09:38.104Z,7.47
2023-04-26T23:12:05.046Z,9.13
2023-04-26T23:14:31.930Z,7.20
2023-04-26T23:16:58.674Z,8.80
2023-04-26T23:19:25.709Z,10.65
2023-04-26T23:21:52.508Z,11.45
2023-04-26T23:24:19.116Z,8.82
2023-04-26T23:26:45.674Z,8.93
2023-04-26T23:29:15.422Z,8.80
2023-04-26T23:31:42.428Z,10.15
2023-04-26T23:34:09.174Z,10.43
2023-04-26T23:36:35.660Z,9.43
2023-04-26T23:39:02.265Z,9.13
2023-04-26T23:41:28.885Z,7.57
2023-04-26T23:43:55.555Z,8.70
2023-04-26T23:46:22.088Z,9.48
2023-04-26T23:48:48.638Z,7.85
2023-04-26T23:51:15.148Z,9.30
2023-04-26T23:53:41.595Z,12.68
2023-04-26T23:56:08.198Z,7.90
2023-04-26T23:58:34.699Z,8.82
